Butternut Basin, Massachusetts
Current Conditions -  °F | °C
As of 12:54 PM on Monday 22 Dec 2014 (Local Time) from KPSF Reporting Station
Overcast Overcast  
Wind Chill: 30°   Ceiling: 3600
Heat Index: 35°   Visibility: 10mi
Dew Point: 31°   Wind: 6mph
Humidity: 85%   Direction: 110°ESE
Pressure: 30.25"   Gusts: NA
Location:  42.19°N, 73.31°W
Report Text: KPSF 221754Z AUTO 11005KT 10SM OVC036 02/M01 A3025 RMK AO2 SLP253 T00171006 10017 21017 58016
Loading
Personal Weather Stations






























Interactive Weather Map New forecast layout! Learn more

10-Day Weather Forecast

Advertisements
Track Severe Weather on mobile